Terminal Aerodrome Forecast
Issued by NWS

Current Version | Previous Version | Text Only | Print | Product List | Glossary Off
Versions: 1 2 3 4 5 6 7 8 9 10 11 12 13 14 15 16 17 18 19

007
FTUS41 KILN 141739
TAFLUK
TAF
KLUK 141739Z 1418/1518 11007KT P6SM SCT250
     FM151400 19008G16KT P6SM FEW050 OVC100=

USA.gov is the U.S. government's official web portal to all federal, state and local government web resources and services.